sensor_id;sensor_type;location;lat;lon;timestamp;P1;P2;P0
75946;PMS5003;64628;50.104;14.614;2023-05-10T02:42:35;30;29;
75946;PMS5003;64628;50.104;14.614;2023-05-10T02:47:23;31;29;
75946;PMS5003;64628;50.104;14.614;2023-05-10T03:28:25;8;8;
75946;PMS5003;64628;50.104;14.614;2023-05-10T03:30:50;13;13;
75946;PMS5003;64628;50.104;14.614;2023-05-10T04:26:36;14;12;
75946;PMS5003;64628;50.104;14.614;2023-05-10T04:29:05;12;9;
75946;PMS5003;64628;50.104;14.614;2023-05-10T04:31:27;12;9;
75946;PMS5003;64628;50.104;14.614;2023-05-10T04:33:53;9;8;
75946;PMS5003;64628;50.104;14.614;2023-05-10T04:38:43;14;9;
75946;PMS5003;64628;50.104;14.614;2023-05-10T04:41:10;12;10;
75946;PMS5003;64628;50.104;14.614;2023-05-10T04:43:35;14;12;
75946;PMS5003;64628;50.104;14.614;2023-05-10T04:46:00;32;28;
75946;PMS5003;64628;50.104;14.614;2023-05-10T04:48:26;12;9;
75946;PMS5003;64628;50.104;14.614;2023-05-10T04:50:51;15;14;
75946;PMS5003;64628;50.104;14.614;2023-05-10T04:53:17;15;13;
75946;PMS5003;64628;50.104;14.614;2023-05-10T04:55:47;17;11;
75946;PMS5003;64628;50.104;14.614;2023-05-10T04:58:10;11;10;
75946;PMS5003;64628;50.104;14.614;2023-05-10T05:00:33;16;13;
75946;PMS5003;64628;50.104;14.614;2023-05-10T05:02:57;9;9;
75946;PMS5003;64628;50.104;14.614;2023-05-10T05:05:23;9;9;
75946;PMS5003;64628;50.104;14.614;2023-05-10T05:07:48;14;13;
75946;PMS5003;64628;50.104;14.614;2023-05-10T05:10:14;13;10;
75946;PMS5003;64628;50.104;14.614;2023-05-10T05:12:39;15;13;
75946;PMS5003;64628;50.104;14.614;2023-05-10T05:15:05;12;10;
75946;PMS5003;64628;50.104;14.614;2023-05-10T05:17:30;15;12;
75946;PMS5003;64628;50.104;14.614;2023-05-10T05:19:55;16;14;
75946;PMS5003;64628;50.104;14.614;2023-05-10T05:22:21;17;10;
75946;PMS5003;64628;50.104;14.614;2023-05-10T05:24:46;18;18;
75946;PMS5003;64628;50.104;14.614;2023-05-10T05:27:12;21;18;
75946;PMS5003;64628;50.104;14.614;2023-05-10T05:29:37;17;16;
75946;PMS5003;64628;50.104;14.614;2023-05-10T05:32:02;16;12;
75946;PMS5003;64628;50.104;14.614;2023-05-10T05:34:27;15;13;
75946;PMS5003;64628;50.104;14.614;2023-05-10T05:36:53;13;13;
75946;PMS5003;64628;50.104;14.614;2023-05-10T05:39:18;16;15;
75946;PMS5003;64628;50.104;14.614;2023-05-10T05:41:43;13;10;
75946;PMS5003;64628;50.104;14.614;2023-05-10T05:44:09;13;12;
75946;PMS5003;64628;50.104;14.614;2023-05-10T05:46:34;9;9;
75946;PMS5003;64628;50.104;14.614;2023-05-10T05:48:59;18;16;
75946;PMS5003;64628;50.104;14.614;2023-05-10T05:51:25;16;13;
75946;PMS5003;64628;50.104;14.614;2023-05-10T07:13:56;5;5;
75946;PMS5003;64628;50.104;14.614;2023-05-10T07:16:21;6;6;
75946;PMS5003;64628;50.104;14.614;2023-05-10T07:18:52;6;6;
75946;PMS5003;64628;50.104;14.614;2023-05-10T07:25:59;6;6;
75946;PMS5003;64628;50.104;14.614;2023-05-10T07:28:24;7;6;
75946;PMS5003;64628;50.104;14.614;2023-05-10T07:30:59;7;6;
75946;PMS5003;64628;50.104;14.614;2023-05-10T07:33:16;6;6;
75946;PMS5003;64628;50.104;14.614;2023-05-10T07:38:06;7;6;
75946;PMS5003;64628;50.104;14.614;2023-05-10T07:40:36;5;5;
75946;PMS5003;64628;50.104;14.614;2023-05-10T07:42:56;6;6;
75946;PMS5003;64628;50.104;14.614;2023-05-10T07:45:22;6;6;
75946;PMS5003;64628;50.104;14.614;2023-05-10T07:47:47;5;5;
75946;PMS5003;64628;50.104;14.614;2023-05-10T07:50:13;6;6;
75946;PMS5003;64628;50.104;14.614;2023-05-10T07:52:38;7;7;
75946;PMS5003;64628;50.104;14.614;2023-05-10T07:55:04;6;6;
75946;PMS5003;64628;50.104;14.614;2023-05-10T07:57:29;8;7;
75946;PMS5003;64628;50.104;14.614;2023-05-10T07:59:55;7;7;
75946;PMS5003;64628;50.104;14.614;2023-05-10T08:02:20;8;8;
75946;PMS5003;64628;50.104;14.614;2023-05-10T08:04:46;3;3;
75946;PMS5003;64628;50.104;14.614;2023-05-10T08:07:12;6;6;
75946;PMS5003;64628;50.104;14.614;2023-05-10T08:09:37;8;8;
75946;PMS5003;64628;50.104;14.614;2023-05-10T08:12:03;6;5;
75946;PMS5003;64628;50.104;14.614;2023-05-10T08:14:28;10;10;
75946;PMS5003;64628;50.104;14.614;2023-05-10T08:16:53;7;7;
75946;PMS5003;64628;50.104;14.614;2023-05-10T08:19:19;6;6;
75946;PMS5003;64628;50.104;14.614;2023-05-10T08:21:44;5;5;
75946;PMS5003;64628;50.104;14.614;2023-05-10T08:24:09;7;7;
75946;PMS5003;64628;50.104;14.614;2023-05-10T08:26:35;8;8;
75946;PMS5003;64628;50.104;14.614;2023-05-10T08:29:00;7;6;
75946;PMS5003;64628;50.104;14.614;2023-05-10T08:31:26;6;6;
75946;PMS5003;64628;50.104;14.614;2023-05-10T08:33:51;6;6;
75946;PMS5003;64628;50.104;14.614;2023-05-10T08:36:17;6;5;
75946;PMS5003;64628;50.104;14.614;2023-05-10T08:38:42;6;6;
75946;PMS5003;64628;50.104;14.614;2023-05-10T08:41:08;5;5;
75946;PMS5003;64628;50.104;14.614;2023-05-10T08:43:33;6;6;
75946;PMS5003;64628;50.104;14.614;2023-05-10T08:46:00;10;9;
75946;PMS5003;64628;50.104;14.614;2023-05-10T08:48:24;5;5;
75946;PMS5003;64628;50.104;14.614;2023-05-10T08:50:50;7;7;
75946;PMS5003;64628;50.104;14.614;2023-05-10T08:53:15;7;7;
75946;PMS5003;64628;50.104;14.614;2023-05-10T08:55:41;7;5;
75946;PMS5003;64628;50.104;14.614;2023-05-10T08:58:06;6;6;
75946;PMS5003;64628;50.104;14.614;2023-05-10T09:00:32;6;6;
75946;PMS5003;64628;50.104;14.614;2023-05-10T09:02:57;8;8;
75946;PMS5003;64628;50.104;14.614;2023-05-10T09:07:48;8;7;
75946;PMS5003;64628;50.104;14.614;2023-05-10T09:10:14;10;8;
75946;PMS5003;64628;50.104;14.614;2023-05-10T09:12:39;7;7;
75946;PMS5003;64628;50.104;14.614;2023-05-10T09:15:05;7;7;
75946;PMS5003;64628;50.104;14.614;2023-05-10T09:17:30;9;8;
75946;PMS5003;64628;50.104;14.614;2023-05-10T09:19:57;7;7;
75946;PMS5003;64628;50.104;14.614;2023-05-10T09:22:20;7;7;
75946;PMS5003;64628;50.104;14.614;2023-05-10T09:24:46;10;8;
75946;PMS5003;64628;50.104;14.614;2023-05-10T09:27:11;8;7;
75946;PMS5003;64628;50.104;14.614;2023-05-10T09:29:41;9;8;
75946;PMS5003;64628;50.104;14.614;2023-05-10T09:32:02;8;6;
75946;PMS5003;64628;50.104;14.614;2023-05-10T09:34:28;10;8;
75946;PMS5003;64628;50.104;14.614;2023-05-10T09:36:54;8;7;
75946;PMS5003;64628;50.104;14.614;2023-05-10T09:39:19;9;7;
75946;PMS5003;64628;50.104;14.614;2023-05-10T09:41:44;14;10;
75946;PMS5003;64628;50.104;14.614;2023-05-10T09:44:10;10;9;
75946;PMS5003;64628;50.104;14.614;2023-05-10T09:46:35;20;17;
75946;PMS5003;64628;50.104;14.614;2023-05-10T09:49:00;7;7;
75946;PMS5003;64628;50.104;14.614;2023-05-10T09:51:26;8;8;
75946;PMS5003;64628;50.104;14.614;2023-05-10T09:54:08;7;7;
75946;PMS5003;64628;50.104;14.614;2023-05-10T09:58:43;10;9;
75946;PMS5003;64628;50.104;14.614;2023-05-10T10:01:10;11;7;
75946;PMS5003;64628;50.104;14.614;2023-05-10T10:03:34;8;8;
75946;PMS5003;64628;50.104;14.614;2023-05-10T10:05:59;7;7;
75946;PMS5003;64628;50.104;14.614;2023-05-10T10:08:25;7;7;
75946;PMS5003;64628;50.104;14.614;2023-05-10T10:10:50;6;6;
75946;PMS5003;64628;50.104;14.614;2023-05-10T10:13:16;7;7;
75946;PMS5003;64628;50.104;14.614;2023-05-10T10:15:41;11;7;
75946;PMS5003;64628;50.104;14.614;2023-05-10T10:18:07;8;8;
75946;PMS5003;64628;50.104;14.614;2023-05-10T10:20:33;6;6;
75946;PMS5003;64628;50.104;14.614;2023-05-10T10:22:58;9;8;
75946;PMS5003;64628;50.104;14.614;2023-05-10T10:25:24;9;8;
75946;PMS5003;64628;50.104;14.614;2023-05-10T10:27:57;9;7;
75946;PMS5003;64628;50.104;14.614;2023-05-10T10:30:19;7;7;
75946;PMS5003;64628;50.104;14.614;2023-05-10T10:32:55;7;7;
75946;PMS5003;64628;50.104;14.614;2023-05-10T10:35:06;12;9;
75946;PMS5003;64628;50.104;14.614;2023-05-10T10:39:58;7;7;
75946;PMS5003;64628;50.104;14.614;2023-05-10T10:44:49;8;8;
75946;PMS5003;64628;50.104;14.614;2023-05-10T10:47:21;9;7;
75946;PMS5003;64628;50.104;14.614;2023-05-10T10:49:48;9;9;
75946;PMS5003;64628;50.104;14.614;2023-05-10T10:54:32;6;6;
75946;PMS5003;64628;50.104;14.614;2023-05-10T11:14:06;9;8;
75946;PMS5003;64628;50.104;14.614;2023-05-10T11:23:49;7;7;
75946;PMS5003;64628;50.104;14.614;2023-05-10T11:26:07;9;9;
75946;PMS5003;64628;50.104;14.614;2023-05-10T11:28:32;9;7;
75946;PMS5003;64628;50.104;14.614;2023-05-10T11:30:58;9;8;
75946;PMS5003;64628;50.104;14.614;2023-05-10T11:33:24;10;9;
75946;PMS5003;64628;50.104;14.614;2023-05-10T11:35:50;6;6;
75946;PMS5003;64628;50.104;14.614;2023-05-10T11:38:15;6;6;
75946;PMS5003;64628;50.104;14.614;2023-05-10T11:40:41;7;7;
75946;PMS5003;64628;50.104;14.614;2023-05-10T11:43:08;7;7;
75946;PMS5003;64628;50.104;14.614;2023-05-10T11:45:32;7;7;
75946;PMS5003;64628;50.104;14.614;2023-05-10T11:47:58;9;7;
75946;PMS5003;64628;50.104;14.614;2023-05-10T11:50:24;7;7;
75946;PMS5003;64628;50.104;14.614;2023-05-10T11:52:50;10;10;
75946;PMS5003;64628;50.104;14.614;2023-05-10T11:55:15;7;7;
75946;PMS5003;64628;50.104;14.614;2023-05-10T11:57:41;8;8;
75946;PMS5003;64628;50.104;14.614;2023-05-10T12:00:07;7;7;
75946;PMS5003;64628;50.104;14.614;2023-05-10T12:02:32;7;6;
75946;PMS5003;64628;50.104;14.614;2023-05-10T12:04:58;8;8;
75946;PMS5003;64628;50.104;14.614;2023-05-10T12:07:23;7;7;
75946;PMS5003;64628;50.104;14.614;2023-05-10T12:12:15;6;6;
75946;PMS5003;64628;50.104;14.614;2023-05-10T12:14:41;8;8;
75946;PMS5003;64628;50.104;14.614;2023-05-10T12:17:11;8;8;
75946;PMS5003;64628;50.104;14.614;2023-05-10T12:19:37;9;9;
75946;PMS5003;64628;50.104;14.614;2023-05-10T12:21:58;7;6;
75946;PMS5003;64628;50.104;14.614;2023-05-10T12:24:24;9;7;
75946;PMS5003;64628;50.104;14.614;2023-05-10T12:26:49;8;7;
75946;PMS5003;64628;50.104;14.614;2023-05-10T12:29:16;5;5;
75946;PMS5003;64628;50.104;14.614;2023-05-10T12:31:49;5;5;
75946;PMS5003;64628;50.104;14.614;2023-05-10T12:34:07;7;7;
75946;PMS5003;64628;50.104;14.614;2023-05-10T12:36:32;12;11;
75946;PMS5003;64628;50.104;14.614;2023-05-10T12:39:02;8;8;
75946;PMS5003;64628;50.104;14.614;2023-05-10T12:41:23;9;7;
75946;PMS5003;64628;50.104;14.614;2023-05-10T12:43:49;8;7;
75946;PMS5003;64628;50.104;14.614;2023-05-10T12:46:16;11;9;
75946;PMS5003;64628;50.104;14.614;2023-05-10T12:48:41;8;8;
75946;PMS5003;64628;50.104;14.614;2023-05-10T12:51:06;7;7;
75946;PMS5003;64628;50.104;14.614;2023-05-10T12:53:32;11;11;
75946;PMS5003;64628;50.104;14.614;2023-05-10T12:55:58;8;8;
75946;PMS5003;64628;50.104;14.614;2023-05-10T12:58:23;11;10;
75946;PMS5003;64628;50.104;14.614;2023-05-10T13:00:49;10;10;
75946;PMS5003;64628;50.104;14.614;2023-05-10T13:03:15;8;7;
75946;PMS5003;64628;50.104;14.614;2023-05-10T13:05:41;8;8;
75946;PMS5003;64628;50.104;14.614;2023-05-10T13:08:07;9;8;
75946;PMS5003;64628;50.104;14.614;2023-05-10T13:10:32;12;10;
75946;PMS5003;64628;50.104;14.614;2023-05-10T13:12:59;7;7;
75946;PMS5003;64628;50.104;14.614;2023-05-10T13:15:24;6;6;
75946;PMS5003;64628;50.104;14.614;2023-05-10T13:17:50;7;7;
75946;PMS5003;64628;50.104;14.614;2023-05-10T13:20:16;10;9;
75946;PMS5003;64628;50.104;14.614;2023-05-10T13:22:42;8;8;
75946;PMS5003;64628;50.104;14.614;2023-05-10T13:25:08;9;9;
75946;PMS5003;64628;50.104;14.614;2023-05-10T13:27:33;10;10;
75946;PMS5003;64628;50.104;14.614;2023-05-10T13:29:59;11;9;
75946;PMS5003;64628;50.104;14.614;2023-05-10T13:32:25;6;6;
75946;PMS5003;64628;50.104;14.614;2023-05-10T13:34:50;9;8;
75946;PMS5003;64628;50.104;14.614;2023-05-10T13:37:16;8;8;
75946;PMS5003;64628;50.104;14.614;2023-05-10T13:39:42;9;8;
75946;PMS5003;64628;50.104;14.614;2023-05-10T13:42:08;9;9;
75946;PMS5003;64628;50.104;14.614;2023-05-10T13:44:33;7;6;
75946;PMS5003;64628;50.104;14.614;2023-05-10T13:46:59;7;7;
75946;PMS5003;64628;50.104;14.614;2023-05-10T13:49:25;6;6;
75946;PMS5003;64628;50.104;14.614;2023-05-10T13:51:51;9;9;
75946;PMS5003;64628;50.104;14.614;2023-05-10T13:54:16;6;6;
75946;PMS5003;64628;50.104;14.614;2023-05-10T13:56:42;6;6;
75946;PMS5003;64628;50.104;14.614;2023-05-10T13:59:08;8;8;
75946;PMS5003;64628;50.104;14.614;2023-05-10T14:01:34;5;5;
75946;PMS5003;64628;50.104;14.614;2023-05-10T14:04:00;8;8;
75946;PMS5003;64628;50.104;14.614;2023-05-10T14:06:26;16;14;
75946;PMS5003;64628;50.104;14.614;2023-05-10T14:08:51;24;22;
75946;PMS5003;64628;50.104;14.614;2023-05-10T14:11:16;68;64;
75946;PMS5003;64628;50.104;14.614;2023-05-10T14:13:42;50;50;
75946;PMS5003;64628;50.104;14.614;2023-05-10T14:16:07;20;20;
75946;PMS5003;64628;50.104;14.614;2023-05-10T14:18:33;26;25;
75946;PMS5003;64628;50.104;14.614;2023-05-10T14:20:58;24;22;
75946;PMS5003;64628;50.104;14.614;2023-05-10T14:23:23;41;38;
75946;PMS5003;64628;50.104;14.614;2023-05-10T14:25:48;27;27;
75946;PMS5003;64628;50.104;14.614;2023-05-10T14:28:14;25;25;
75946;PMS5003;64628;50.104;14.614;2023-05-10T14:30:40;17;17;
75946;PMS5003;64628;50.104;14.614;2023-05-10T14:33:06;43;42;
75946;PMS5003;64628;50.104;14.614;2023-05-10T14:35:31;56;56;
75946;PMS5003;64628;50.104;14.614;2023-05-10T14:37:56;33;33;
75946;PMS5003;64628;50.104;14.614;2023-05-10T14:40:21;23;23;
75946;PMS5003;64628;50.104;14.614;2023-05-10T14:42:47;25;24;
75946;PMS5003;64628;50.104;14.614;2023-05-10T14:45:13;19;19;
75946;PMS5003;64628;50.104;14.614;2023-05-10T14:47:39;29;29;
75946;PMS5003;64628;50.104;14.614;2023-05-10T14:50:04;64;64;
75946;PMS5003;64628;50.104;14.614;2023-05-10T14:52:29;42;41;
75946;PMS5003;64628;50.104;14.614;2023-05-10T14:54:55;52;51;
75946;PMS5003;64628;50.104;14.614;2023-05-10T14:57:21;22;22;
75946;PMS5003;64628;50.104;14.614;2023-05-10T14:59:46;40;40;
75946;PMS5003;64628;50.104;14.614;2023-05-10T15:02:11;51;49;
75946;PMS5003;64628;50.104;14.614;2023-05-10T15:04:37;62;62;
75946;PMS5003;64628;50.104;14.614;2023-05-10T15:07:03;33;30;
75946;PMS5003;64628;50.104;14.614;2023-05-10T15:09:28;33;32;
75946;PMS5003;64628;50.104;14.614;2023-05-10T15:11:54;25;25;
75946;PMS5003;64628;50.104;14.614;2023-05-10T15:14:20;28;28;
75946;PMS5003;64628;50.104;14.614;2023-05-10T15:16:45;43;43;
75946;PMS5003;64628;50.104;14.614;2023-05-10T15:19:10;25;25;
75946;PMS5003;64628;50.104;14.614;2023-05-10T15:21:35;27;27;
75946;PMS5003;64628;50.104;14.614;2023-05-10T15:24:00;36;36;
75946;PMS5003;64628;50.104;14.614;2023-05-10T15:26:26;28;28;
75946;PMS5003;64628;50.104;14.614;2023-05-10T15:28:52;28;28;
75946;PMS5003;64628;50.104;14.614;2023-05-10T15:31:17;42;38;
75946;PMS5003;64628;50.104;14.614;2023-05-10T15:33:42;43;42;
75946;PMS5003;64628;50.104;14.614;2023-05-10T15:36:07;35;35;
75946;PMS5003;64628;50.104;14.614;2023-05-10T15:38:32;44;41;
75946;PMS5003;64628;50.104;14.614;2023-05-10T15:40:58;32;32;
75946;PMS5003;64628;50.104;14.614;2023-05-10T15:43:23;30;30;
75946;PMS5003;64628;50.104;14.614;2023-05-10T15:45:48;35;35;
75946;PMS5003;64628;50.104;14.614;2023-05-10T15:48:13;39;37;
75946;PMS5003;64628;50.104;14.614;2023-05-10T15:50:38;39;39;
75946;PMS5003;64628;50.104;14.614;2023-05-10T16:10:02;10;10;
75946;PMS5003;64628;50.104;14.614;2023-05-10T16:14:51;8;8;
75946;PMS5003;64628;50.104;14.614;2023-05-10T16:17:16;9;9;
75946;PMS5003;64628;50.104;14.614;2023-05-10T16:19:41;10;9;
75946;PMS5003;64628;50.104;14.614;2023-05-10T16:22:07;9;9;
75946;PMS5003;64628;50.104;14.614;2023-05-10T16:24:32;7;7;
75946;PMS5003;64628;50.104;14.614;2023-05-10T16:26:57;7;7;
75946;PMS5003;64628;50.104;14.614;2023-05-10T16:29:22;9;9;
75946;PMS5003;64628;50.104;14.614;2023-05-10T16:31:47;10;10;
75946;PMS5003;64628;50.104;14.614;2023-05-10T16:34:12;10;9;
75946;PMS5003;64628;50.104;14.614;2023-05-10T16:36:37;10;10;
75946;PMS5003;64628;50.104;14.614;2023-05-10T16:39:02;9;8;
75946;PMS5003;64628;50.104;14.614;2023-05-10T16:41:27;13;10;
75946;PMS5003;64628;50.104;14.614;2023-05-10T16:43:53;8;7;
75946;PMS5003;64628;50.104;14.614;2023-05-10T16:46:18;10;9;
75946;PMS5003;64628;50.104;14.614;2023-05-10T16:48:42;7;7;
75946;PMS5003;64628;50.104;14.614;2023-05-10T16:51:07;10;10;
75946;PMS5003;64628;50.104;14.614;2023-05-10T16:53:33;6;6;
75946;PMS5003;64628;50.104;14.614;2023-05-10T16:55:58;10;8;
75946;PMS5003;64628;50.104;14.614;2023-05-10T16:58:23;11;8;
75946;PMS5003;64628;50.104;14.614;2023-05-10T17:00:48;12;11;
75946;PMS5003;64628;50.104;14.614;2023-05-10T17:03:13;12;8;
75946;PMS5003;64628;50.104;14.614;2023-05-10T17:05:38;8;8;
75946;PMS5003;64628;50.104;14.614;2023-05-10T17:08:04;9;9;
75946;PMS5003;64628;50.104;14.614;2023-05-10T17:10:28;7;7;
75946;PMS5003;64628;50.104;14.614;2023-05-10T17:12:53;8;8;
75946;PMS5003;64628;50.104;14.614;2023-05-10T17:15:18;8;8;
75946;PMS5003;64628;50.104;14.614;2023-05-10T17:17:43;8;8;
75946;PMS5003;64628;50.104;14.614;2023-05-10T17:20:09;12;8;
75946;PMS5003;64628;50.104;14.614;2023-05-10T17:22:34;8;8;
75946;PMS5003;64628;50.104;14.614;2023-05-10T17:24:59;9;7;
75946;PMS5003;64628;50.104;14.614;2023-05-10T17:27:24;11;9;
75946;PMS5003;64628;50.104;14.614;2023-05-10T17:32:18;7;7;
75946;PMS5003;64628;50.104;14.614;2023-05-10T17:37:07;11;8;
75946;PMS5003;64628;50.104;14.614;2023-05-10T17:46:48;9;9;
75946;PMS5003;64628;50.104;14.614;2023-05-10T17:49:12;8;8;
75946;PMS5003;64628;50.104;14.614;2023-05-10T17:59:03;7;7;
75946;PMS5003;64628;50.104;14.614;2023-05-10T18:06:11;11;10;
75946;PMS5003;64628;50.104;14.614;2023-05-10T18:32:45;9;7;
75946;PMS5003;64628;50.104;14.614;2023-05-10T18:35:10;9;9;
75946;PMS5003;64628;50.104;14.614;2023-05-10T18:37:35;10;10;
75946;PMS5003;64628;50.104;14.614;2023-05-10T18:40:00;14;13;
75946;PMS5003;64628;50.104;14.614;2023-05-10T18:42:25;10;9;
75946;PMS5003;64628;50.104;14.614;2023-05-10T18:44:51;9;8;
75946;PMS5003;64628;50.104;14.614;2023-05-10T18:47:16;9;8;
75946;PMS5003;64628;50.104;14.614;2023-05-10T18:49:41;9;9;
75946;PMS5003;64628;50.104;14.614;2023-05-10T18:52:06;9;8;
75946;PMS5003;64628;50.104;14.614;2023-05-10T18:54:31;7;7;
75946;PMS5003;64628;50.104;14.614;2023-05-10T18:56:57;9;9;
75946;PMS5003;64628;50.104;14.614;2023-05-10T18:59:22;7;7;
75946;PMS5003;64628;50.104;14.614;2023-05-10T19:01:47;8;8;
75946;PMS5003;64628;50.104;14.614;2023-05-10T19:04:13;9;9;
75946;PMS5003;64628;50.104;14.614;2023-05-10T19:06:38;13;13;
75946;PMS5003;64628;50.104;14.614;2023-05-10T19:09:03;16;14;
75946;PMS5003;64628;50.104;14.614;2023-05-10T19:11:28;11;10;
75946;PMS5003;64628;50.104;14.614;2023-05-10T19:13:53;10;10;
75946;PMS5003;64628;50.104;14.614;2023-05-10T19:16:19;12;12;
75946;PMS5003;64628;50.104;14.614;2023-05-10T19:18:44;19;19;
75946;PMS5003;64628;50.104;14.614;2023-05-10T19:21:11;21;19;
75946;PMS5003;64628;50.104;14.614;2023-05-10T19:23:35;21;20;
75946;PMS5003;64628;50.104;14.614;2023-05-10T19:26:00;48;45;
75946;PMS5003;64628;50.104;14.614;2023-05-10T19:28:25;39;37;
75946;PMS5003;64628;50.104;14.614;2023-05-10T19:30:51;38;38;
75946;PMS5003;64628;50.104;14.614;2023-05-10T19:33:16;9;9;
75946;PMS5003;64628;50.104;14.614;2023-05-10T19:35:41;93;93;
75946;PMS5003;64628;50.104;14.614;2023-05-10T19:38:07;33;33;
75946;PMS5003;64628;50.104;14.614;2023-05-10T19:40:32;32;29;
75946;PMS5003;64628;50.104;14.614;2023-05-10T19:42:57;47;47;
75946;PMS5003;64628;50.104;14.614;2023-05-10T19:45:22;25;25;
75946;PMS5003;64628;50.104;14.614;2023-05-10T19:47:48;32;32;
75946;PMS5003;64628;50.104;14.614;2023-05-10T19:50:14;59;59;
75946;PMS5003;64628;50.104;14.614;2023-05-10T19:52:39;38;38;
75946;PMS5003;64628;50.104;14.614;2023-05-10T19:55:06;41;39;
75946;PMS5003;64628;50.104;14.614;2023-05-10T19:57:31;38;36;
75946;PMS5003;64628;50.104;14.614;2023-05-10T19:59:56;51;50;
75946;PMS5003;64628;50.104;14.614;2023-05-10T20:02:21;37;37;
75946;PMS5003;64628;50.104;14.614;2023-05-10T20:04:47;41;40;
75946;PMS5003;64628;50.104;14.614;2023-05-10T20:07:12;43;43;
75946;PMS5003;64628;50.104;14.614;2023-05-10T20:09:38;45;45;
75946;PMS5003;64628;50.104;14.614;2023-05-10T20:12:03;47;46;
75946;PMS5003;64628;50.104;14.614;2023-05-10T20:14:30;56;56;
75946;PMS5003;64628;50.104;14.614;2023-05-10T20:16:54;64;62;
75946;PMS5003;64628;50.104;14.614;2023-05-10T20:19:20;74;73;
75946;PMS5003;64628;50.104;14.614;2023-05-10T20:21:45;80;78;
75946;PMS5003;64628;50.104;14.614;2023-05-10T20:24:10;47;45;
75946;PMS5003;64628;50.104;14.614;2023-05-10T20:26:36;21;18;
75946;PMS5003;64628;50.104;14.614;2023-05-10T20:29:01;21;19;
75946;PMS5003;64628;50.104;14.614;2023-05-10T20:31:27;19;19;
75946;PMS5003;64628;50.104;14.614;2023-05-10T20:33:51;22;20;
75946;PMS5003;64628;50.104;14.614;2023-05-10T20:36:17;19;19;
75946;PMS5003;64628;50.104;14.614;2023-05-10T20:38:43;19;16;
75946;PMS5003;64628;50.104;14.614;2023-05-10T20:41:08;23;20;
75946;PMS5003;64628;50.104;14.614;2023-05-10T20:43:34;20;20;
75946;PMS5003;64628;50.104;14.614;2023-05-10T20:45:59;20;19;
75946;PMS5003;64628;50.104;14.614;2023-05-10T20:48:24;29;21;
75946;PMS5003;64628;50.104;14.614;2023-05-10T20:50:50;25;22;
75946;PMS5003;64628;50.104;14.614;2023-05-10T20:53:15;22;21;
75946;PMS5003;64628;50.104;14.614;2023-05-10T20:55:40;24;22;
75946;PMS5003;64628;50.104;14.614;2023-05-10T20:58:05;32;26;
75946;PMS5003;64628;50.104;14.614;2023-05-10T21:00:31;22;21;
75946;PMS5003;64628;50.104;14.614;2023-05-10T21:02:56;32;26;
75946;PMS5003;64628;50.104;14.614;2023-05-10T21:05:21;27;23;
75946;PMS5003;64628;50.104;14.614;2023-05-10T21:07:47;26;24;
75946;PMS5003;64628;50.104;14.614;2023-05-10T21:10:12;21;21;
75946;PMS5003;64628;50.104;14.614;2023-05-10T21:12:38;29;26;
75946;PMS5003;64628;50.104;14.614;2023-05-10T21:15:03;29;27;
75946;PMS5003;64628;50.104;14.614;2023-05-10T21:17:28;29;25;
75946;PMS5003;64628;50.104;14.614;2023-05-10T21:19:54;28;25;
75946;PMS5003;64628;50.104;14.614;2023-05-10T21:22:19;40;30;
75946;PMS5003;64628;50.104;14.614;2023-05-10T21:24:45;35;32;
75946;PMS5003;64628;50.104;14.614;2023-05-10T21:27:10;31;31;
75946;PMS5003;64628;50.104;14.614;2023-05-10T21:29:35;31;27;
75946;PMS5003;64628;50.104;14.614;2023-05-10T21:32:01;27;26;
75946;PMS5003;64628;50.104;14.614;2023-05-10T21:34:26;31;28;
75946;PMS5003;64628;50.104;14.614;2023-05-10T21:36:52;34;31;
75946;PMS5003;64628;50.104;14.614;2023-05-10T21:39:17;30;28;
75946;PMS5003;64628;50.104;14.614;2023-05-10T21:41:42;39;38;
75946;PMS5003;64628;50.104;14.614;2023-05-10T21:44:08;39;38;
75946;PMS5003;64628;50.104;14.614;2023-05-10T21:46:33;36;32;
75946;PMS5003;64628;50.104;14.614;2023-05-10T21:48:59;26;24;
75946;PMS5003;64628;50.104;14.614;2023-05-10T21:51:24;25;24;
75946;PMS5003;64628;50.104;14.614;2023-05-10T21:53:50;22;21;
75946;PMS5003;64628;50.104;14.614;2023-05-10T21:56:15;21;21;
75946;PMS5003;64628;50.104;14.614;2023-05-10T21:58:41;26;22;
75946;PMS5003;64628;50.104;14.614;2023-05-10T22:01:06;25;22;
75946;PMS5003;64628;50.104;14.614;2023-05-10T22:03:31;28;24;
75946;PMS5003;64628;50.104;14.614;2023-05-10T22:05:56;20;20;
75946;PMS5003;64628;50.104;14.614;2023-05-10T22:08:22;22;21;
75946;PMS5003;64628;50.104;14.614;2023-05-10T22:10:47;22;20;
75946;PMS5003;64628;50.104;14.614;2023-05-10T22:13:13;20;18;
75946;PMS5003;64628;50.104;14.614;2023-05-10T22:15:39;20;19;
75946;PMS5003;64628;50.104;14.614;2023-05-10T22:18:04;22;18;
75946;PMS5003;64628;50.104;14.614;2023-05-10T22:20:30;20;19;
75946;PMS5003;64628;50.104;14.614;2023-05-10T22:22:55;20;19;
75946;PMS5003;64628;50.104;14.614;2023-05-10T22:25:21;21;18;
75946;PMS5003;64628;50.104;14.614;2023-05-10T22:27:47;17;17;
75946;PMS5003;64628;50.104;14.614;2023-05-10T22:30:12;19;18;
75946;PMS5003;64628;50.104;14.614;2023-05-10T22:32:38;18;17;
75946;PMS5003;64628;50.104;14.614;2023-05-10T22:35:04;19;18;
75946;PMS5003;64628;50.104;14.614;2023-05-10T22:37:29;20;18;
75946;PMS5003;64628;50.104;14.614;2023-05-10T22:39:55;18;18;
75946;PMS5003;64628;50.104;14.614;2023-05-10T22:42:20;19;17;
75946;PMS5003;64628;50.104;14.614;2023-05-10T22:44:45;16;15;
75946;PMS5003;64628;50.104;14.614;2023-05-10T22:47:11;17;16;
75946;PMS5003;64628;50.104;14.614;2023-05-10T22:49:36;18;17;
75946;PMS5003;64628;50.104;14.614;2023-05-10T22:52:01;16;16;
75946;PMS5003;64628;50.104;14.614;2023-05-10T22:54:27;17;16;
75946;PMS5003;64628;50.104;14.614;2023-05-10T22:56:52;15;15;
75946;PMS5003;64628;50.104;14.614;2023-05-10T22:59:18;17;16;
75946;PMS5003;64628;50.104;14.614;2023-05-10T23:01:43;16;15;
75946;PMS5003;64628;50.104;14.614;2023-05-10T23:04:08;19;18;
75946;PMS5003;64628;50.104;14.614;2023-05-10T23:06:33;17;17;
75946;PMS5003;64628;50.104;14.614;2023-05-10T23:08:59;20;16;
75946;PMS5003;64628;50.104;14.614;2023-05-10T23:11:24;16;15;
75946;PMS5003;64628;50.104;14.614;2023-05-10T23:13:49;19;16;
75946;PMS5003;64628;50.104;14.614;2023-05-10T23:16:15;18;16;
75946;PMS5003;64628;50.104;14.614;2023-05-10T23:18:41;17;14;
75946;PMS5003;64628;50.104;14.614;2023-05-10T23:21:06;16;16;
75946;PMS5003;64628;50.104;14.614;2023-05-10T23:23:32;17;15;
75946;PMS5003;64628;50.104;14.614;2023-05-10T23:25:57;16;14;
75946;PMS5003;64628;50.104;14.614;2023-05-10T23:28:23;14;14;
75946;PMS5003;64628;50.104;14.614;2023-05-10T23:30:52;17;14;
75946;PMS5003;64628;50.104;14.614;2023-05-10T23:33:14;20;18;
75946;PMS5003;64628;50.104;14.614;2023-05-10T23:35:41;14;14;